Pagina principale
METAR-TAF:

METAR-TAF

Aeroporti :

Aeroporto di Innsbruck

Innsbruck, Austria

latitudine: 47-16N, longitudine: 011-21E, altezza: 581 m

Osservazione

Il bollettino è stato emesso 36 minuti fa, alle 10:20 UTC
Vento 2 kt da direzioni variabili
Temperature 9°C
Umidità 61%
Pressione 1025 hPa
Visibilità 10 km o più
Poco nuvoloso ad un'altezza di 6500 ft

METAR: LOWI 261020Z VRB02KT 9999 FEW065 09/02 Q1025 NOSIG

Ora: 12:56 (10:56 UTC)

Previsione

Il bollettino è stato emesso 5 ore e 41 minuti fa, alle 05:15 UTC
Previsione valida dal 26 alle 06 UTC al 27 alle 06 UTC
Vento 3 kt da ovest
Visibilità 10 km o più
Nubi sparse ad un'altezza di 6000 ft
Temporaneamente
dal 26 alle 12 UTC al 26 alle 18 UTC
rovesci di pioggia

TAF: LOWI 260515Z 2606/2706 27003KT 9999 SCT060 TX13/2614Z TNM00/2606Z TEMPO 2612/2618 -SHRA

Osservazioni e previsioni meteorologiche di più di 4000 aeroporti (messaggi METAR e TAF).

Le stazioni disponibili sono rappresentate dai dischi gialli e rossi sulla carta.

Puntare il mouse per vedere il nome della stazione.

Clicca sopra per visualizzare le osservazioni e previsioni meteorologiche.

Per cambiare la mappa : fare clic sui pulsanti verdi con una croce nera per ingrandire, il pulsante verde con un trattino per diminuire, o sulla freccia verde per le mappe adiacenti.


METAR-TAF: